sensor_id;sensor_type;location;lat;lon;timestamp;P1;durP1;ratioP1;P2;durP2;ratioP2
30287;SDS011;17103;48.316;11.558;2022-09-21T00:01:24;3.85;;;2.38;;
30287;SDS011;17103;48.316;11.558;2022-09-21T00:04:09;2.25;;;1.55;;
30287;SDS011;17103;48.316;11.558;2022-09-21T00:06:35;3.13;;;1.83;;
30287;SDS011;17103;48.316;11.558;2022-09-21T00:09:02;2.33;;;2.00;;
30287;SDS011;17103;48.316;11.558;2022-09-21T00:11:30;3.40;;;2.00;;
30287;SDS011;17103;48.316;11.558;2022-09-21T00:13:57;2.33;;;1.50;;
30287;SDS011;17103;48.316;11.558;2022-09-21T00:16:27;1.60;;;1.50;;
30287;SDS011;17103;48.316;11.558;2022-09-21T00:18:52;3.30;;;1.58;;
30287;SDS011;17103;48.316;11.558;2022-09-21T00:21:18;2.35;;;1.73;;
30287;SDS011;17103;48.316;11.558;2022-09-21T00:23:45;3.78;;;1.20;;
30287;SDS011;17103;48.316;11.558;2022-09-21T00:26:15;1.70;;;1.13;;
30287;SDS011;17103;48.316;11.558;2022-09-21T00:28:42;2.80;;;1.10;;
30287;SDS011;17103;48.316;11.558;2022-09-21T00:31:12;2.03;;;0.90;;
30287;SDS011;17103;48.316;11.558;2022-09-21T00:33:39;3.25;;;0.95;;
30287;SDS011;17103;48.316;11.558;2022-09-21T00:36:07;2.15;;;1.15;;
30287;SDS011;17103;48.316;11.558;2022-09-21T00:38:34;1.80;;;1.10;;
30287;SDS011;17103;48.316;11.558;2022-09-21T00:41:01;2.10;;;0.80;;
30287;SDS011;17103;48.316;11.558;2022-09-21T00:43:28;2.33;;;0.73;;
30287;SDS011;17103;48.316;11.558;2022-09-21T00:45:56;2.22;;;0.90;;
30287;SDS011;17103;48.316;11.558;2022-09-21T00:48:27;2.42;;;0.90;;
30287;SDS011;17103;48.316;11.558;2022-09-21T00:50:55;2.05;;;0.90;;
30287;SDS011;17103;48.316;11.558;2022-09-21T00:53:25;1.58;;;0.73;;
30287;SDS011;17103;48.316;11.558;2022-09-21T00:55:53;2.17;;;0.88;;
30287;SDS011;17103;48.316;11.558;2022-09-21T00:58:24;1.45;;;0.60;;
30287;SDS011;17103;48.316;11.558;2022-09-21T01:00:54;1.25;;;0.82;;
30287;SDS011;17103;48.316;11.558;2022-09-21T01:03:22;1.60;;;0.95;;
30287;SDS011;17103;48.316;11.558;2022-09-21T01:05:48;1.73;;;0.63;;
30287;SDS011;17103;48.316;11.558;2022-09-21T01:08:13;1.70;;;0.60;;
30287;SDS011;17103;48.316;11.558;2022-09-21T01:11:00;3.22;;;0.80;;
30287;SDS011;17103;48.316;11.558;2022-09-21T01:16:35;1.77;;;0.60;;
30287;SDS011;17103;48.316;11.558;2022-09-21T01:19:39;1.55;;;1.08;;
30287;SDS011;17103;48.316;11.558;2022-09-21T01:22:47;2.22;;;1.15;;
30287;SDS011;17103;48.316;11.558;2022-09-21T01:30:44;0.88;;;0.77;;
30287;SDS011;17103;48.316;11.558;2022-09-21T01:33:18;1.30;;;0.88;;
30287;SDS011;17103;48.316;11.558;2022-09-21T01:35:51;1.48;;;0.90;;
30287;SDS011;17103;48.316;11.558;2022-09-21T01:38:23;1.97;;;0.93;;
30287;SDS011;17103;48.316;11.558;2022-09-21T01:40:56;2.03;;;1.02;;
30287;SDS011;17103;48.316;11.558;2022-09-21T01:43:26;1.30;;;0.90;;
30287;SDS011;17103;48.316;11.558;2022-09-21T01:46:00;2.03;;;0.70;;
30287;SDS011;17103;48.316;11.558;2022-09-21T01:48:33;2.13;;;1.30;;
30287;SDS011;17103;48.316;11.558;2022-09-21T01:51:03;2.88;;;0.85;;
30287;SDS011;17103;48.316;11.558;2022-09-21T01:53:36;1.92;;;0.85;;
30287;SDS011;17103;48.316;11.558;2022-09-21T01:56:09;1.05;;;0.77;;
30287;SDS011;17103;48.316;11.558;2022-09-21T02:01:56;1.70;;;0.77;;
30287;SDS011;17103;48.316;11.558;2022-09-21T02:04:24;1.48;;;0.75;;
30287;SDS011;17103;48.316;11.558;2022-09-21T02:06:51;2.28;;;0.80;;
30287;SDS011;17103;48.316;11.558;2022-09-21T02:09:17;2.25;;;1.15;;
30287;SDS011;17103;48.316;11.558;2022-09-21T02:11:43;2.30;;;0.90;;
30287;SDS011;17103;48.316;11.558;2022-09-21T02:14:10;3.50;;;0.80;;
30287;SDS011;17103;48.316;11.558;2022-09-21T02:16:57;1.58;;;0.95;;
30287;SDS011;17103;48.316;11.558;2022-09-21T02:24:32;2.55;;;0.70;;
30287;SDS011;17103;48.316;11.558;2022-09-21T02:27:12;1.13;;;0.70;;
30287;SDS011;17103;48.316;11.558;2022-09-21T02:32:35;1.38;;;0.60;;
30287;SDS011;17103;48.316;11.558;2022-09-21T02:35:17;2.00;;;0.90;;
30287;SDS011;17103;48.316;11.558;2022-09-21T02:40:35;0.85;;;0.70;;
30287;SDS011;17103;48.316;11.558;2022-09-21T02:43:24;1.95;;;0.73;;
30287;SDS011;17103;48.316;11.558;2022-09-21T02:46:02;1.95;;;0.80;;
30287;SDS011;17103;48.316;11.558;2022-09-21T02:48:33;4.10;;;1.10;;
30287;SDS011;17103;48.316;11.558;2022-09-21T02:51:06;0.70;;;0.57;;
30287;SDS011;17103;48.316;11.558;2022-09-21T02:53:38;1.13;;;0.65;;
30287;SDS011;17103;48.316;11.558;2022-09-21T02:56:06;2.75;;;0.77;;
30287;SDS011;17103;48.316;11.558;2022-09-21T02:58:34;2.55;;;0.80;;
30287;SDS011;17103;48.316;11.558;2022-09-21T03:01:12;1.75;;;0.90;;
30287;SDS011;17103;48.316;11.558;2022-09-21T03:03:40;1.38;;;0.90;;
30287;SDS011;17103;48.316;11.558;2022-09-21T03:06:05;1.48;;;0.85;;
30287;SDS011;17103;48.316;11.558;2022-09-21T03:08:31;1.08;;;0.60;;
30287;SDS011;17103;48.316;11.558;2022-09-21T03:10:57;2.55;;;0.90;;
30287;SDS011;17103;48.316;11.558;2022-09-21T03:13:23;4.03;;;0.68;;
30287;SDS011;17103;48.316;11.558;2022-09-21T03:15:48;1.30;;;0.70;;
30287;SDS011;17103;48.316;11.558;2022-09-21T03:18:14;2.33;;;0.60;;
30287;SDS011;17103;48.316;11.558;2022-09-21T03:20:42;1.05;;;0.75;;
30287;SDS011;17103;48.316;11.558;2022-09-21T03:23:10;2.40;;;0.82;;
30287;SDS011;17103;48.316;11.558;2022-09-21T03:25:36;0.90;;;0.65;;
30287;SDS011;17103;48.316;11.558;2022-09-21T03:28:02;1.50;;;0.70;;
30287;SDS011;17103;48.316;11.558;2022-09-21T03:30:28;1.75;;;0.88;;
30287;SDS011;17103;48.316;11.558;2022-09-21T03:32:55;2.58;;;1.17;;
30287;SDS011;17103;48.316;11.558;2022-09-21T03:35:22;1.25;;;0.65;;
30287;SDS011;17103;48.316;11.558;2022-09-21T03:37:50;0.60;;;0.50;;
30287;SDS011;17103;48.316;11.558;2022-09-21T03:40:16;1.23;;;0.90;;
30287;SDS011;17103;48.316;11.558;2022-09-21T03:42:43;1.58;;;0.82;;
30287;SDS011;17103;48.316;11.558;2022-09-21T03:45:09;1.80;;;0.80;;
30287;SDS011;17103;48.316;11.558;2022-09-21T03:47:36;1.38;;;0.90;;
30287;SDS011;17103;48.316;11.558;2022-09-21T03:50:03;1.52;;;1.02;;
30287;SDS011;17103;48.316;11.558;2022-09-21T03:52:29;1.30;;;0.80;;
30287;SDS011;17103;48.316;11.558;2022-09-21T03:54:55;1.90;;;0.93;;
30287;SDS011;17103;48.316;11.558;2022-09-21T03:57:21;1.63;;;0.85;;
30287;SDS011;17103;48.316;11.558;2022-09-21T03:59:47;2.95;;;0.80;;
30287;SDS011;17103;48.316;11.558;2022-09-21T04:02:12;1.08;;;0.80;;
30287;SDS011;17103;48.316;11.558;2022-09-21T04:04:39;2.00;;;1.17;;
30287;SDS011;17103;48.316;11.558;2022-09-21T04:07:04;1.85;;;1.50;;
30287;SDS011;17103;48.316;11.558;2022-09-21T04:09:30;7.60;;;1.92;;
30287;SDS011;17103;48.316;11.558;2022-09-21T04:11:55;4.75;;;2.20;;
30287;SDS011;17103;48.316;11.558;2022-09-21T04:14:21;3.95;;;2.30;;
30287;SDS011;17103;48.316;11.558;2022-09-21T04:16:47;3.08;;;1.80;;
30287;SDS011;17103;48.316;11.558;2022-09-21T04:19:14;2.60;;;2.22;;
30287;SDS011;17103;48.316;11.558;2022-09-21T04:21:40;2.90;;;1.73;;
30287;SDS011;17103;48.316;11.558;2022-09-21T04:24:06;6.75;;;2.85;;
30287;SDS011;17103;48.316;11.558;2022-09-21T04:26:32;3.63;;;2.60;;
30287;SDS011;17103;48.316;11.558;2022-09-21T04:28:59;3.83;;;2.50;;
30287;SDS011;17103;48.316;11.558;2022-09-21T04:31:25;4.35;;;2.85;;
30287;SDS011;17103;48.316;11.558;2022-09-21T04:33:52;3.20;;;2.60;;
30287;SDS011;17103;48.316;11.558;2022-09-21T04:36:20;5.05;;;2.67;;
30287;SDS011;17103;48.316;11.558;2022-09-21T04:38:47;5.70;;;3.13;;
30287;SDS011;17103;48.316;11.558;2022-09-21T04:41:13;2.58;;;2.28;;
30287;SDS011;17103;48.316;11.558;2022-09-21T04:43:45;2.53;;;2.33;;
30287;SDS011;17103;48.316;11.558;2022-09-21T04:46:16;2.33;;;2.00;;
30287;SDS011;17103;48.316;11.558;2022-09-21T04:48:43;2.70;;;2.40;;
30287;SDS011;17103;48.316;11.558;2022-09-21T04:51:09;2.10;;;1.90;;
30287;SDS011;17103;48.316;11.558;2022-09-21T04:53:36;23.88;;;2.90;;
30287;SDS011;17103;48.316;11.558;2022-09-21T04:56:03;8.10;;;2.70;;
30287;SDS011;17103;48.316;11.558;2022-09-21T04:58:30;4.38;;;2.50;;
30287;SDS011;17103;48.316;11.558;2022-09-21T05:00:57;4.57;;;2.78;;
30287;SDS011;17103;48.316;11.558;2022-09-21T05:03:23;18.08;;;9.70;;
30287;SDS011;17103;48.316;11.558;2022-09-21T05:05:50;13.05;;;8.38;;
30287;SDS011;17103;48.316;11.558;2022-09-21T05:08:20;9.82;;;5.60;;
30287;SDS011;17103;48.316;11.558;2022-09-21T05:11:08;7.90;;;4.90;;
30287;SDS011;17103;48.316;11.558;2022-09-21T05:13:37;8.23;;;4.97;;
30287;SDS011;17103;48.316;11.558;2022-09-21T05:16:03;6.90;;;4.28;;
30287;SDS011;17103;48.316;11.558;2022-09-21T05:18:28;9.32;;;4.30;;
30287;SDS011;17103;48.316;11.558;2022-09-21T05:20:57;6.93;;;3.70;;
30287;SDS011;17103;48.316;11.558;2022-09-21T05:23:25;7.25;;;3.80;;
30287;SDS011;17103;48.316;11.558;2022-09-21T05:25:53;7.72;;;4.45;;
30287;SDS011;17103;48.316;11.558;2022-09-21T05:28:20;13.40;;;7.60;;
30287;SDS011;17103;48.316;11.558;2022-09-21T05:33:39;11.15;;;7.20;;
30287;SDS011;17103;48.316;11.558;2022-09-21T05:36:13;9.68;;;6.35;;
30287;SDS011;17103;48.316;11.558;2022-09-21T05:38:56;10.57;;;6.57;;
30287;SDS011;17103;48.316;11.558;2022-09-21T05:41:22;8.57;;;6.28;;
30287;SDS011;17103;48.316;11.558;2022-09-21T05:43:48;9.60;;;6.72;;
30287;SDS011;17103;48.316;11.558;2022-09-21T05:46:18;7.15;;;5.43;;
30287;SDS011;17103;48.316;11.558;2022-09-21T05:48:53;5.38;;;3.90;;
30287;SDS011;17103;48.316;11.558;2022-09-21T05:56:44;2.65;;;1.50;;
30287;SDS011;17103;48.316;11.558;2022-09-21T06:02:03;2.58;;;1.98;;
30287;SDS011;17103;48.316;11.558;2022-09-21T06:04:35;2.08;;;0.90;;
30287;SDS011;17103;48.316;11.558;2022-09-21T06:07:01;1.00;;;0.85;;
30287;SDS011;17103;48.316;11.558;2022-09-21T06:09:26;3.25;;;1.27;;
30287;SDS011;17103;48.316;11.558;2022-09-21T06:11:52;1.40;;;0.85;;
30287;SDS011;17103;48.316;11.558;2022-09-21T06:14:18;4.05;;;2.22;;
30287;SDS011;17103;48.316;11.558;2022-09-21T06:16:49;2.28;;;1.60;;
30287;SDS011;17103;48.316;11.558;2022-09-21T06:19:15;2.95;;;1.00;;
30287;SDS011;17103;48.316;11.558;2022-09-21T06:21:41;2.22;;;1.20;;
30287;SDS011;17103;48.316;11.558;2022-09-21T06:24:06;5.72;;;1.40;;
30287;SDS011;17103;48.316;11.558;2022-09-21T06:26:32;4.10;;;2.97;;
30287;SDS011;17103;48.316;11.558;2022-09-21T06:28:58;8.57;;;5.93;;
30287;SDS011;17103;48.316;11.558;2022-09-21T06:31:25;4.00;;;2.75;;
30287;SDS011;17103;48.316;11.558;2022-09-21T06:33:51;7.10;;;3.25;;
30287;SDS011;17103;48.316;11.558;2022-09-21T06:36:17;2.38;;;1.50;;
30287;SDS011;17103;48.316;11.558;2022-09-21T06:38:42;1.88;;;1.30;;
30287;SDS011;17103;48.316;11.558;2022-09-21T06:41:08;1.92;;;1.42;;
30287;SDS011;17103;48.316;11.558;2022-09-21T06:43:34;2.28;;;1.45;;
30287;SDS011;17103;48.316;11.558;2022-09-21T06:46:00;2.05;;;1.52;;
30287;SDS011;17103;48.316;11.558;2022-09-21T06:48:27;2.22;;;1.40;;
30287;SDS011;17103;48.316;11.558;2022-09-21T06:50:57;2.63;;;1.77;;
30287;SDS011;17103;48.316;11.558;2022-09-21T06:53:28;2.28;;;1.63;;
30287;SDS011;17103;48.316;11.558;2022-09-21T06:56:05;1.42;;;1.25;;
30287;SDS011;17103;48.316;11.558;2022-09-21T06:58:32;2.85;;;1.83;;
30287;SDS011;17103;48.316;11.558;2022-09-21T07:01:05;5.93;;;2.05;;
30287;SDS011;17103;48.316;11.558;2022-09-21T07:03:35;2.22;;;1.60;;
30287;SDS011;17103;48.316;11.558;2022-09-21T07:06:02;5.32;;;2.10;;
30287;SDS011;17103;48.316;11.558;2022-09-21T07:08:28;4.93;;;2.15;;
30287;SDS011;17103;48.316;11.558;2022-09-21T07:10:57;3.05;;;1.83;;
30287;SDS011;17103;48.316;11.558;2022-09-21T07:13:24;2.70;;;2.00;;
30287;SDS011;17103;48.316;11.558;2022-09-21T07:15:51;3.72;;;2.08;;
30287;SDS011;17103;48.316;11.558;2022-09-21T07:18:17;3.17;;;2.20;;
30287;SDS011;17103;48.316;11.558;2022-09-21T07:20:42;2.92;;;1.70;;
30287;SDS011;17103;48.316;11.558;2022-09-21T07:23:09;10.80;;;2.78;;
30287;SDS011;17103;48.316;11.558;2022-09-21T07:25:35;5.03;;;2.00;;
30287;SDS011;17103;48.316;11.558;2022-09-21T07:28:01;4.00;;;2.35;;
30287;SDS011;17103;48.316;11.558;2022-09-21T07:30:27;3.55;;;2.55;;
30287;SDS011;17103;48.316;11.558;2022-09-21T07:32:53;3.33;;;2.10;;
30287;SDS011;17103;48.316;11.558;2022-09-21T07:35:18;2.75;;;2.00;;
30287;SDS011;17103;48.316;11.558;2022-09-21T07:37:44;3.08;;;2.08;;
30287;SDS011;17103;48.316;11.558;2022-09-21T07:40:10;3.88;;;2.10;;
30287;SDS011;17103;48.316;11.558;2022-09-21T07:42:35;3.47;;;2.28;;
30287;SDS011;17103;48.316;11.558;2022-09-21T07:45:01;3.40;;;1.90;;
30287;SDS011;17103;48.316;11.558;2022-09-21T07:47:27;5.00;;;1.73;;
30287;SDS011;17103;48.316;11.558;2022-09-21T07:49:52;2.45;;;1.58;;
30287;SDS011;17103;48.316;11.558;2022-09-21T07:52:19;2.05;;;1.23;;
30287;SDS011;17103;48.316;11.558;2022-09-21T07:54:45;2.75;;;1.30;;
30287;SDS011;17103;48.316;11.558;2022-09-21T07:57:10;2.35;;;1.17;;
30287;SDS011;17103;48.316;11.558;2022-09-21T07:59:55;2.35;;;1.25;;
30287;SDS011;17103;48.316;11.558;2022-09-21T08:02:22;2.15;;;1.27;;
30287;SDS011;17103;48.316;11.558;2022-09-21T08:04:48;3.53;;;1.63;;
30287;SDS011;17103;48.316;11.558;2022-09-21T08:07:15;2.58;;;1.35;;
30287;SDS011;17103;48.316;11.558;2022-09-21T08:09:41;2.50;;;1.17;;
30287;SDS011;17103;48.316;11.558;2022-09-21T08:12:07;2.45;;;1.00;;
30287;SDS011;17103;48.316;11.558;2022-09-21T08:14:33;2.53;;;1.60;;
30287;SDS011;17103;48.316;11.558;2022-09-21T08:17:00;2.13;;;1.23;;
30287;SDS011;17103;48.316;11.558;2022-09-21T08:19:25;1.83;;;1.02;;
30287;SDS011;17103;48.316;11.558;2022-09-21T08:21:52;2.67;;;1.17;;
30287;SDS011;17103;48.316;11.558;2022-09-21T08:24:18;1.52;;;0.80;;
30287;SDS011;17103;48.316;11.558;2022-09-21T08:26:45;1.35;;;1.10;;
30287;SDS011;17103;48.316;11.558;2022-09-21T08:29:11;2.03;;;1.30;;
30287;SDS011;17103;48.316;11.558;2022-09-21T08:31:38;2.95;;;1.65;;
30287;SDS011;17103;48.316;11.558;2022-09-21T08:34:04;1.83;;;1.30;;
30287;SDS011;17103;48.316;11.558;2022-09-21T08:36:30;2.63;;;1.30;;
30287;SDS011;17103;48.316;11.558;2022-09-21T08:38:56;2.60;;;1.27;;
30287;SDS011;17103;48.316;11.558;2022-09-21T08:41:23;2.47;;;1.20;;
30287;SDS011;17103;48.316;11.558;2022-09-21T08:44:18;1.75;;;1.00;;
30287;SDS011;17103;48.316;11.558;2022-09-21T08:46:51;4.90;;;1.30;;
30287;SDS011;17103;48.316;11.558;2022-09-21T08:49:26;2.53;;;1.08;;
30287;SDS011;17103;48.316;11.558;2022-09-21T08:51:55;2.03;;;1.30;;
30287;SDS011;17103;48.316;11.558;2022-09-21T08:54:25;3.05;;;1.05;;
30287;SDS011;17103;48.316;11.558;2022-09-21T08:57:08;3.05;;;1.10;;
30287;SDS011;17103;48.316;11.558;2022-09-21T08:59:37;2.90;;;1.00;;
30287;SDS011;17103;48.316;11.558;2022-09-21T09:05:02;1.90;;;1.00;;
30287;SDS011;17103;48.316;11.558;2022-09-21T09:08:00;1.60;;;0.50;;
30287;SDS011;17103;48.316;11.558;2022-09-21T09:13:49;2.25;;;0.70;;
30287;SDS011;17103;48.316;11.558;2022-09-21T09:19:23;2.40;;;0.73;;
30287;SDS011;17103;48.316;11.558;2022-09-21T09:22:13;1.60;;;1.05;;
30287;SDS011;17103;48.316;11.558;2022-09-21T09:24:50;2.42;;;1.33;;
30287;SDS011;17103;48.316;11.558;2022-09-21T09:29:58;2.05;;;0.80;;
30287;SDS011;17103;48.316;11.558;2022-09-21T09:37:56;1.98;;;0.95;;
30287;SDS011;17103;48.316;11.558;2022-09-21T09:40:43;1.00;;;0.90;;
30287;SDS011;17103;48.316;11.558;2022-09-21T09:46:20;1.33;;;0.63;;
30287;SDS011;17103;48.316;11.558;2022-09-21T09:51:50;0.77;;;0.40;;
30287;SDS011;17103;48.316;11.558;2022-09-21T09:54:17;1.85;;;0.20;;
30287;SDS011;17103;48.316;11.558;2022-09-21T09:56:46;2.30;;;0.40;;
30287;SDS011;17103;48.316;11.558;2022-09-21T09:59:18;1.35;;;0.30;;
30287;SDS011;17103;48.316;11.558;2022-09-21T10:02:04;1.02;;;0.43;;
30287;SDS011;17103;48.316;11.558;2022-09-21T10:07:00;0.75;;;0.30;;
30287;SDS011;17103;48.316;11.558;2022-09-21T10:09:32;2.03;;;0.35;;
30287;SDS011;17103;48.316;11.558;2022-09-21T10:14:49;0.60;;;0.20;;
30287;SDS011;17103;48.316;11.558;2022-09-21T10:17:17;0.55;;;0.20;;
30287;SDS011;17103;48.316;11.558;2022-09-21T10:19:43;1.65;;;0.20;;
30287;SDS011;17103;48.316;11.558;2022-09-21T10:22:16;1.52;;;0.20;;
30287;SDS011;17103;48.316;11.558;2022-09-21T10:24:51;0.40;;;0.20;;
30287;SDS011;17103;48.316;11.558;2022-09-21T10:27:36;0.77;;;0.20;;
30287;SDS011;17103;48.316;11.558;2022-09-21T10:32:55;0.75;;;0.17;;
30287;SDS011;17103;48.316;11.558;2022-09-21T10:35:22;0.50;;;0.30;;
30287;SDS011;17103;48.316;11.558;2022-09-21T10:37:48;1.13;;;0.50;;
30287;SDS011;17103;48.316;11.558;2022-09-21T10:40:37;0.40;;;0.10;;
30287;SDS011;17103;48.316;11.558;2022-09-21T10:43:03;2.28;;;0.20;;
30287;SDS011;17103;48.316;11.558;2022-09-21T10:45:30;1.35;;;0.22;;
30287;SDS011;17103;48.316;11.558;2022-09-21T10:50:37;0.88;;;0.20;;
30287;SDS011;17103;48.316;11.558;2022-09-21T10:55:43;0.32;;;0.22;;
30287;SDS011;17103;48.316;11.558;2022-09-21T10:58:16;0.75;;;0.30;;
30287;SDS011;17103;48.316;11.558;2022-09-21T11:00:43;0.75;;;0.20;;
30287;SDS011;17103;48.316;11.558;2022-09-21T11:03:25;1.85;;;0.40;;
30287;SDS011;17103;48.316;11.558;2022-09-21T11:06:08;0.50;;;0.20;;
30287;SDS011;17103;48.316;11.558;2022-09-21T11:08:57;1.65;;;0.43;;
30287;SDS011;17103;48.316;11.558;2022-09-21T11:14:15;2.55;;;0.50;;
30287;SDS011;17103;48.316;11.558;2022-09-21T11:22:11;5.10;;;1.30;;
30287;SDS011;17103;48.316;11.558;2022-09-21T11:27:17;1.10;;;0.40;;
30287;SDS011;17103;48.316;11.558;2022-09-21T11:38:39;0.57;;;0.30;;
30287;SDS011;17103;48.316;11.558;2022-09-21T11:44:20;0.98;;;0.60;;
30287;SDS011;17103;48.316;11.558;2022-09-21T11:52:35;1.48;;;0.38;;
30287;SDS011;17103;48.316;11.558;2022-09-21T11:57:57;0.60;;;0.30;;
30287;SDS011;17103;48.316;11.558;2022-09-21T12:00:41;1.48;;;0.40;;
30287;SDS011;17103;48.316;11.558;2022-09-21T12:03:31;2.10;;;0.60;;
30287;SDS011;17103;48.316;11.558;2022-09-21T12:12:28;1.20;;;0.43;;
30287;SDS011;17103;48.316;11.558;2022-09-21T12:22:31;0.88;;;0.40;;
30287;SDS011;17103;48.316;11.558;2022-09-21T12:25:20;0.90;;;0.30;;
30287;SDS011;17103;48.316;11.558;2022-09-21T12:30:26;1.23;;;0.43;;
30287;SDS011;17103;48.316;11.558;2022-09-21T12:35:47;0.50;;;0.25;;
30287;SDS011;17103;48.316;11.558;2022-09-21T12:38:29;0.57;;;0.30;;
30287;SDS011;17103;48.316;11.558;2022-09-21T12:43:49;0.85;;;0.40;;
30287;SDS011;17103;48.316;11.558;2022-09-21T12:46:29;1.13;;;0.40;;
30287;SDS011;17103;48.316;11.558;2022-09-21T12:49:01;0.30;;;0.30;;
30287;SDS011;17103;48.316;11.558;2022-09-21T12:51:40;1.15;;;0.40;;
30287;SDS011;17103;48.316;11.558;2022-09-21T12:54:30;1.83;;;0.45;;
30287;SDS011;17103;48.316;11.558;2022-09-21T12:59:47;0.80;;;0.30;;
30287;SDS011;17103;48.316;11.558;2022-09-21T13:10:56;0.57;;;0.20;;
30287;SDS011;17103;48.316;11.558;2022-09-21T13:13:29;0.38;;;0.10;;
30287;SDS011;17103;48.316;11.558;2022-09-21T13:16:01;0.50;;;0.10;;
30287;SDS011;17103;48.316;11.558;2022-09-21T13:18:31;0.75;;;0.30;;
30287;SDS011;17103;48.316;11.558;2022-09-21T13:21:18;0.22;;;0.10;;
30287;SDS011;17103;48.316;11.558;2022-09-21T13:24:01;0.40;;;0.20;;
30287;SDS011;17103;48.316;11.558;2022-09-21T13:34:23;0.40;;;0.40;;
30287;SDS011;17103;48.316;11.558;2022-09-21T13:39:43;0.77;;;0.28;;
30287;SDS011;17103;48.316;11.558;2022-09-21T13:45:01;0.73;;;0.45;;
30287;SDS011;17103;48.316;11.558;2022-09-21T13:47:34;0.52;;;0.30;;
30287;SDS011;17103;48.316;11.558;2022-09-21T13:50:21;0.95;;;0.40;;
30287;SDS011;17103;48.316;11.558;2022-09-21T13:52:48;0.52;;;0.30;;
30287;SDS011;17103;48.316;11.558;2022-09-21T13:55:29;0.68;;;0.28;;
30287;SDS011;17103;48.316;11.558;2022-09-21T14:03:34;1.30;;;0.20;;
30287;SDS011;17103;48.316;11.558;2022-09-21T14:06:06;0.50;;;0.20;;
30287;SDS011;17103;48.316;11.558;2022-09-21T14:08:37;0.45;;;0.30;;
30287;SDS011;17103;48.316;11.558;2022-09-21T14:11:14;0.85;;;0.30;;
30287;SDS011;17103;48.316;11.558;2022-09-21T14:13:46;1.70;;;0.28;;
30287;SDS011;17103;48.316;11.558;2022-09-21T14:24:37;1.60;;;0.30;;
30287;SDS011;17103;48.316;11.558;2022-09-21T14:35:24;0.80;;;0.60;;
30287;SDS011;17103;48.316;11.558;2022-09-21T14:37:55;1.05;;;0.55;;
30287;SDS011;17103;48.316;11.558;2022-09-21T14:40:36;2.85;;;0.43;;
30287;SDS011;17103;48.316;11.558;2022-09-21T14:43:10;0.90;;;0.47;;
30287;SDS011;17103;48.316;11.558;2022-09-21T14:45:57;1.60;;;0.52;;
30287;SDS011;17103;48.316;11.558;2022-09-21T15:02:28;0.88;;;0.50;;
30287;SDS011;17103;48.316;11.558;2022-09-21T15:13:49;1.90;;;0.70;;
30287;SDS011;17103;48.316;11.558;2022-09-21T15:21:38;1.17;;;0.40;;
30287;SDS011;17103;48.316;11.558;2022-09-21T15:24:24;0.85;;;0.52;;
30287;SDS011;17103;48.316;11.558;2022-09-21T15:29:57;1.55;;;0.38;;
30287;SDS011;17103;48.316;11.558;2022-09-21T15:32:35;0.60;;;0.30;;
30287;SDS011;17103;48.316;11.558;2022-09-21T15:35:19;0.60;;;0.30;;
30287;SDS011;17103;48.316;11.558;2022-09-21T15:37:47;0.55;;;0.30;;
30287;SDS011;17103;48.316;11.558;2022-09-21T15:40:23;0.60;;;0.30;;
30287;SDS011;17103;48.316;11.558;2022-09-21T15:43:01;0.47;;;0.13;;
30287;SDS011;17103;48.316;11.558;2022-09-21T15:45:31;0.38;;;0.25;;
30287;SDS011;17103;48.316;11.558;2022-09-21T15:48:19;1.05;;;0.40;;
30287;SDS011;17103;48.316;11.558;2022-09-21T15:50:47;0.90;;;0.25;;
30287;SDS011;17103;48.316;11.558;2022-09-21T15:53:23;1.55;;;0.40;;
30287;SDS011;17103;48.316;11.558;2022-09-21T15:55:51;0.45;;;0.30;;
30287;SDS011;17103;48.316;11.558;2022-09-21T15:58:21;0.85;;;0.22;;
30287;SDS011;17103;48.316;11.558;2022-09-21T16:01:11;1.75;;;1.05;;
30287;SDS011;17103;48.316;11.558;2022-09-21T16:03:39;0.82;;;0.40;;
30287;SDS011;17103;48.316;11.558;2022-09-21T16:08:50;0.38;;;0.30;;
30287;SDS011;17103;48.316;11.558;2022-09-21T16:17:18;0.80;;;0.50;;
30287;SDS011;17103;48.316;11.558;2022-09-21T16:20:14;0.70;;;0.30;;
30287;SDS011;17103;48.316;11.558;2022-09-21T16:22:47;1.27;;;0.20;;
30287;SDS011;17103;48.316;11.558;2022-09-21T16:25:19;0.57;;;0.30;;
30287;SDS011;17103;48.316;11.558;2022-09-21T16:28:03;0.43;;;0.20;;
30287;SDS011;17103;48.316;11.558;2022-09-21T16:38:58;1.15;;;0.60;;
30287;SDS011;17103;48.316;11.558;2022-09-21T16:41:33;0.90;;;0.30;;
30287;SDS011;17103;48.316;11.558;2022-09-21T16:44:02;0.25;;;0.20;;
30287;SDS011;17103;48.316;11.558;2022-09-21T16:46:29;0.40;;;0.30;;
30287;SDS011;17103;48.316;11.558;2022-09-21T16:48:55;0.93;;;0.30;;
30287;SDS011;17103;48.316;11.558;2022-09-21T16:51:24;1.67;;;0.47;;
30287;SDS011;17103;48.316;11.558;2022-09-21T16:53:51;0.35;;;0.35;;
30287;SDS011;17103;48.316;11.558;2022-09-21T16:56:17;0.88;;;0.30;;
30287;SDS011;17103;48.316;11.558;2022-09-21T16:58:43;0.93;;;0.35;;
30287;SDS011;17103;48.316;11.558;2022-09-21T17:01:16;0.52;;;0.40;;
30287;SDS011;17103;48.316;11.558;2022-09-21T17:03:46;0.73;;;0.50;;
30287;SDS011;17103;48.316;11.558;2022-09-21T17:06:16;0.75;;;0.40;;
30287;SDS011;17103;48.316;11.558;2022-09-21T17:08:43;1.05;;;0.40;;
30287;SDS011;17103;48.316;11.558;2022-09-21T17:11:13;0.40;;;0.30;;
30287;SDS011;17103;48.316;11.558;2022-09-21T17:16:12;0.47;;;0.30;;
30287;SDS011;17103;48.316;11.558;2022-09-21T17:18:41;1.23;;;0.50;;
30287;SDS011;17103;48.316;11.558;2022-09-21T17:21:07;0.52;;;0.40;;
30287;SDS011;17103;48.316;11.558;2022-09-21T17:23:34;0.65;;;0.38;;
30287;SDS011;17103;48.316;11.558;2022-09-21T17:26:00;2.22;;;0.50;;
30287;SDS011;17103;48.316;11.558;2022-09-21T17:28:26;1.05;;;0.60;;
30287;SDS011;17103;48.316;11.558;2022-09-21T17:30:53;0.40;;;0.38;;
30287;SDS011;17103;48.316;11.558;2022-09-21T17:33:19;1.42;;;0.50;;
30287;SDS011;17103;48.316;11.558;2022-09-21T17:35:47;1.17;;;0.50;;
30287;SDS011;17103;48.316;11.558;2022-09-21T17:40:43;1.67;;;0.40;;
30287;SDS011;17103;48.316;11.558;2022-09-21T17:48:20;1.98;;;0.70;;
30287;SDS011;17103;48.316;11.558;2022-09-21T17:50:47;1.63;;;0.55;;
30287;SDS011;17103;48.316;11.558;2022-09-21T17:53:14;1.02;;;0.50;;
30287;SDS011;17103;48.316;11.558;2022-09-21T17:56:25;0.55;;;0.43;;
30287;SDS011;17103;48.316;11.558;2022-09-21T17:59:02;0.73;;;0.50;;
30287;SDS011;17103;48.316;11.558;2022-09-21T18:01:33;1.13;;;0.88;;
30287;SDS011;17103;48.316;11.558;2022-09-21T18:04:05;0.73;;;0.52;;
30287;SDS011;17103;48.316;11.558;2022-09-21T18:06:34;2.38;;;0.52;;
30287;SDS011;17103;48.316;11.558;2022-09-21T18:09:00;1.92;;;0.85;;
30287;SDS011;17103;48.316;11.558;2022-09-21T18:14:11;2.38;;;0.70;;
30287;SDS011;17103;48.316;11.558;2022-09-21T18:17:06;1.50;;;0.55;;
30287;SDS011;17103;48.316;11.558;2022-09-21T18:25:17;1.83;;;0.70;;
30287;SDS011;17103;48.316;11.558;2022-09-21T18:27:50;13.18;;;1.48;;
30287;SDS011;17103;48.316;11.558;2022-09-21T18:30:19;3.30;;;0.95;;
30287;SDS011;17103;48.316;11.558;2022-09-21T18:38:42;1.63;;;0.98;;
30287;SDS011;17103;48.316;11.558;2022-09-21T18:41:30;1.85;;;1.10;;
30287;SDS011;17103;48.316;11.558;2022-09-21T18:44:09;0.65;;;0.50;;
30287;SDS011;17103;48.316;11.558;2022-09-21T18:52:08;1.80;;;0.90;;
30287;SDS011;17103;48.316;11.558;2022-09-21T18:55:13;2.10;;;0.93;;
30287;SDS011;17103;48.316;11.558;2022-09-21T18:57:47;4.20;;;0.90;;
30287;SDS011;17103;48.316;11.558;2022-09-21T19:00:13;2.42;;;0.90;;
30287;SDS011;17103;48.316;11.558;2022-09-21T19:02:40;1.05;;;0.60;;
30287;SDS011;17103;48.316;11.558;2022-09-21T19:05:05;1.17;;;0.70;;